Time;durP1;ratioP1;P1;durP2;ratioP2;P2;SDS_P1;SDS_P2;PMS_P1;PMS_P2;Temp;Humidity;BMP_temperature;BMP_pressure;BME280_temperature;BME280_humidity;BME280_pressure;Samples;Min_cycle;Max_cycle;Signal;HPM_P1;HPM_P2
2022/06/14 00:01:15;;;;;;;;;3.33;2.67;;;;;20.75;44.20;98683.19;4984827;28;102320;-59
2022/06/14 00:03:43;;;;;;;;;3.00;2.33;;;;;20.75;44.35;98683.19;4945081;27;103893;-59
2022/06/14 00:06:10;;;;;;;;;3.00;3.00;;;;;20.74;44.56;98682.38;4967929;28;105160;-59
2022/06/14 00:08:37;;;;;;;;;2.33;2.33;;;;;20.77;44.36;98681.00;4969983;28;102710;-59
2022/06/14 00:11:13;;;;;;;;;3.67;3.33;;;;;20.75;44.68;98689.53;4963914;27;102474;-59
2022/06/14 00:13:40;;;;;;;;;4.00;3.00;;;;;20.75;44.55;98680.44;4966614;27;102388;-59
2022/06/14 00:16:07;;;;;;;;;3.33;2.67;;;;;20.71;44.25;98682.91;4987059;27;102172;-59
2022/06/14 00:18:35;;;;;;;;;3.33;3.33;;;;;20.72;44.51;98686.44;4958283;27;102962;-59
2022/06/14 00:21:03;;;;;;;;;4.00;3.00;;;;;20.72;44.29;98695.53;4983212;27;102245;-60
2022/06/14 00:23:30;;;;;;;;;2.67;2.67;;;;;20.70;44.50;98691.41;4991413;27;102426;-59
2022/06/14 00:25:58;;;;;;;;;3.67;3.67;;;;;20.70;44.29;98696.91;4989878;27;102126;-59
2022/06/14 00:28:26;;;;;;;;;3.00;3.00;;;;;20.69;44.47;98687.00;4986734;28;105934;-59
2022/06/14 00:30:56;;;;;;;;;3.00;3.00;;;;;20.67;44.29;98692.75;5007064;27;102580;-59
2022/06/14 00:33:23;;;;;;;;;4.67;4.00;;;;;20.67;44.65;98697.44;4984050;28;102171;-59
2022/06/14 00:35:58;;;;;;;;;3.67;3.67;;;;;20.65;44.16;98694.94;4997810;28;104954;-59
2022/06/14 00:38:25;;;;;;;;;4.33;3.00;;;;;20.68;44.69;98699.06;4965817;28;109094;-59
2022/06/14 00:40:55;;;;;;;;;4.33;3.67;;;;;20.66;44.47;98695.78;4987430;27;103175;-59
2022/06/14 00:43:22;;;;;;;;;4.67;3.67;;;;;20.64;44.36;98701.53;4992863;28;102101;-60
2022/06/14 00:45:49;;;;;;;;;4.00;4.00;;;;;20.63;44.42;98702.59;4987270;28;103344;-59
2022/06/14 00:48:26;;;;;;;;;4.67;4.67;;;;;20.64;44.62;98698.78;4993925;27;108973;-59
2022/06/14 00:51:16;;;;;;;;;4.00;4.00;;;;;20.63;44.43;98707.28;4971612;28;102527;-60
2022/06/14 00:53:56;;;;;;;;;6.00;5.00;;;;;20.62;44.91;98713.88;4977518;28;103399;-59
2022/06/14 00:56:47;;;;;;;;;4.67;4.67;;;;;20.61;44.58;98707.56;4984797;27;102640;-59
2022/06/14 00:59:16;;;;;;;;;4.33;4.33;;;;;20.58;45.07;98708.06;4978396;28;104261;-59
2022/06/14 01:01:43;;;;;;;;;5.00;5.00;;;;;20.60;44.56;98707.81;4960370;27;103107;-60
2022/06/14 01:04:24;;;;;;;;;4.67;3.67;;;;;20.58;44.57;98708.06;4978895;28;102928;-59
2022/06/14 01:07:13;;;;;;;;;4.00;4.00;;;;;20.60;44.73;98707.81;4958649;28;102632;-59
2022/06/14 01:09:44;;;;;;;;;5.00;4.33;;;;;20.59;45.00;98706.13;4902611;28;110610;-59
2022/06/14 01:12:15;;;;;;;;;4.00;4.00;;;;;20.58;44.77;98710.00;4923714;27;102203;-59
2022/06/14 01:15:07;;;;;;;;;4.33;4.33;;;;;20.57;44.66;98708.34;4977286;27;102780;-59
2022/06/14 01:17:41;;;;;;;;;5.67;5.67;;;;;20.57;44.91;98708.34;4973303;28;102490;-59
2022/06/14 01:20:12;;;;;;;;;5.00;5.00;;;;;20.56;45.04;98704.75;4977671;28;104313;-59
2022/06/14 01:22:40;;;;;;;;;5.33;5.33;;;;;20.57;44.68;98702.84;4967933;28;102622;-59
2022/06/14 01:25:08;;;;;;;;;6.00;6.00;;;;;20.54;45.06;98709.69;4982394;27;102419;-59
2022/06/14 01:27:36;;;;;;;;;5.33;5.33;;;;;20.55;45.29;98716.00;4983084;27;102212;-59
2022/06/14 01:30:08;;;;;;;;;4.00;4.00;;;;;20.55;44.61;98713.25;4985189;27;104207;-59
2022/06/14 01:32:40;;;;;;;;;1.00;1.00;;;;;20.52;44.78;98709.13;4961581;27;104047;-59
2022/06/14 01:35:08;;;;;;;;;4.67;4.00;;;;;20.53;44.80;98712.72;4949991;27;102419;-59
2022/06/14 01:37:35;;;;;;;;;4.67;3.67;;;;;20.51;44.61;98726.69;4976134;27;102569;-59
2022/06/14 01:40:04;;;;;;;;;4.67;4.33;;;;;20.49;44.78;98724.19;4973138;28;104393;-59
2022/06/14 01:43:00;;;;;;;;;5.00;5.00;;;;;20.50;45.09;98733.28;4972055;28;102595;-59
2022/06/14 01:45:48;;;;;;;;;3.67;3.67;;;;;20.51;44.54;98736.84;4963999;28;102402;-59
2022/06/14 01:48:47;;;;;;;;;5.00;5.00;;;;;20.52;44.46;98741.25;4970449;27;102598;-59
2022/06/14 01:54:33;;;;;;;;;4.00;4.00;;;;;20.51;44.36;98739.59;4974811;27;102361;-60
2022/06/14 01:57:22;;;;;;;;;4.67;3.67;;;;;20.47;44.47;98751.13;4989015;28;103989;-59
2022/06/14 02:00:22;;;;;;;;;4.67;3.67;;;;;20.47;44.35;98756.63;4979189;27;103305;-59
2022/06/14 02:05:55;;;;;;;;;4.00;4.00;;;;;20.43;44.51;98757.41;4968954;27;102167;-59
2022/06/14 02:08:24;;;;;;;;;5.33;4.33;;;;;20.41;44.20;98756.81;4980609;28;102412;-59
2022/06/14 02:10:54;;;;;;;;;3.67;3.67;;;;;20.41;44.29;98754.06;4982574;28;102199;-59
2022/06/14 02:13:34;;;;;;;;;4.00;4.00;;;;;20.39;44.71;98757.09;4986196;27;105210;-59
2022/06/14 02:16:06;;;;;;;;;3.67;3.67;;;;;20.38;44.33;98758.19;4962734;28;102172;-59
2022/06/14 02:18:47;;;;;;;;;5.33;5.00;;;;;20.37;44.54;98758.44;4987095;28;102187;-59
2022/06/14 02:21:48;;;;;;;;;4.00;4.00;;;;;20.39;44.46;98762.59;4976328;28;102571;-59
2022/06/14 02:24:42;;;;;;;;;5.00;4.67;;;;;20.36;44.03;98757.59;4972551;27;108672;-59
2022/06/14 02:27:31;;;;;;;;;5.00;4.67;;;;;20.36;44.32;98754.84;4972031;27;102295;-59
2022/06/14 02:30:13;;;;;;;;;4.67;4.67;;;;;20.35;44.52;98760.63;4990902;27;102187;-59
2022/06/14 02:32:43;;;;;;;;;4.67;4.00;;;;;20.33;44.07;98769.13;4961394;27;102202;-59
2022/06/14 02:35:16;;;;;;;;;5.67;4.67;;;;;20.33;44.18;98780.09;4979231;27;104077;-60
2022/06/14 02:37:51;;;;;;;;;6.33;4.67;;;;;20.32;44.31;98783.94;4973366;28;105379;-59
2022/06/14 02:40:27;;;;;;;;;6.00;5.00;;;;;20.29;43.67;98778.09;4974258;28;105238;-59
2022/06/14 02:43:03;;;;;;;;;5.33;5.00;;;;;20.29;44.09;98778.94;4986059;27;102409;-59
2022/06/14 02:45:34;;;;;;;;;3.67;3.67;;;;;20.30;43.99;98783.38;4986919;27;109026;-59
2022/06/14 02:48:25;;;;;;;;;6.00;5.00;;;;;20.28;44.17;98788.25;4989420;28;102446;-59
2022/06/14 02:51:02;;;;;;;;;4.67;4.00;;;;;20.26;43.80;98795.09;4990328;27;102231;-59
2022/06/14 02:53:41;;;;;;;;;4.67;4.67;;;;;20.26;43.84;98793.16;4966185;28;102729;-59
2022/06/14 02:56:09;;;;;;;;;3.67;3.33;;;;;20.28;44.06;98807.47;4977830;28;107983;-59
2022/06/14 02:58:50;;;;;;;;;3.67;3.67;;;;;20.26;43.79;98806.88;4993935;27;102370;-59
2022/06/14 03:01:51;;;;;;;;;4.33;4.33;;;;;20.26;43.93;98806.88;4976461;28;102525;-60
2022/06/14 03:04:36;;;;;;;;;4.00;3.67;;;;;20.25;43.77;98805.25;4979936;27;102226;-59
2022/06/14 03:07:20;;;;;;;;;4.00;3.67;;;;;20.22;43.87;98811.25;4986332;28;109025;-59
2022/06/14 03:09:47;;;;;;;;;4.00;4.00;;;;;20.22;43.68;98807.69;4991071;27;102665;-59
2022/06/14 03:12:16;;;;;;;;;6.00;5.33;;;;;20.19;43.50;98810.94;4978631;28;102461;-59
2022/06/14 03:14:52;;;;;;;;;5.00;4.00;;;;;20.20;43.87;98815.34;4982142;27;102595;-59
2022/06/14 03:17:48;;;;;;;;;3.67;3.67;;;;;20.17;43.56;98813.97;4989165;27;104138;-59
2022/06/14 03:20:41;;;;;;;;;4.00;3.67;;;;;20.16;43.41;98822.44;4996460;28;103099;-59
2022/06/14 03:23:17;;;;;;;;;1.67;0.67;;;;;20.15;43.52;98816.13;4978565;28;102202;-59
2022/06/14 03:25:57;;;;;;;;;5.67;5.67;;;;;20.16;43.83;98823.28;4993018;27;110353;-59
2022/06/14 03:28:36;;;;;;;;;6.67;4.67;;;;;20.15;43.38;98832.59;4992166;28;105316;-59
2022/06/14 03:31:15;;;;;;;;;5.00;5.00;;;;;20.13;43.36;98829.25;4983745;28;103954;-59
2022/06/14 03:33:47;;;;;;;;;5.33;5.00;;;;;20.14;43.46;98835.59;4982528;27;102266;-60
2022/06/14 03:36:14;;;;;;;;;6.00;6.00;;;;;20.13;43.68;98839.44;4992222;28;102184;-59
2022/06/14 03:38:50;;;;;;;;;5.67;4.67;;;;;20.13;43.35;98844.94;4992757;27;104159;-60
2022/06/14 03:41:22;;;;;;;;;4.00;4.00;;;;;20.10;43.25;98843.50;4966060;28;102221;-59
2022/06/14 03:43:49;;;;;;;;;5.00;5.00;;;;;20.09;43.22;98855.56;4997796;28;102165;-59
2022/06/14 03:46:28;;;;;;;;;4.00;4.00;;;;;20.09;43.17;98847.34;4980863;28;102322;-59
2022/06/14 03:49:02;;;;;;;;;5.00;5.00;;;;;20.07;43.21;98846.78;4984961;28;104166;-59
2022/06/14 03:51:48;;;;;;;;;4.33;4.33;;;;;20.05;43.14;98849.78;4970069;28;102176;-59
2022/06/14 03:54:40;;;;;;;;;6.00;4.67;;;;;20.05;43.16;98857.19;4970545;28;102392;-59
2022/06/14 03:57:19;;;;;;;;;4.67;4.67;;;;;20.02;43.23;98849.47;4980074;28;103480;-60
2022/06/14 04:00:10;;;;;;;;;4.00;4.00;;;;;20.01;42.86;98858.78;4994970;27;104295;-60
2022/06/14 04:02:53;;;;;;;;;4.67;4.67;;;;;20.00;42.91;98859.84;4985980;28;102537;-60
2022/06/14 04:05:49;;;;;;;;;6.00;6.00;;;;;19.97;43.05;98857.63;4990882;27;102198;-59
2022/06/14 04:08:23;;;;;;;;;4.67;4.67;;;;;19.97;43.21;98868.63;4990788;27;102130;-59
2022/06/14 04:11:02;;;;;;;;;4.00;4.00;;;;;19.96;42.70;98867.78;4993280;28;106228;-59
2022/06/14 04:13:59;;;;;;;;;5.00;4.67;;;;;19.93;42.98;98867.47;4971799;27;103689;-59
2022/06/14 04:16:46;;;;;;;;;5.67;4.67;;;;;19.92;43.21;98877.59;4990700;27;102713;-59
2022/06/14 04:19:19;;;;;;;;;4.67;4.00;;;;;19.92;42.85;98874.03;4987536;28;102166;-59
2022/06/14 04:21:57;;;;;;;;;5.67;5.67;;;;;19.91;43.10;98880.59;4950195;28;104052;-59
2022/06/14 04:24:33;;;;;;;;;4.67;4.67;;;;;19.92;42.93;98879.53;4978346;28;102343;-59
2022/06/14 04:27:00;;;;;;;;;4.67;4.67;;;;;19.91;42.87;98883.34;4990944;27;102379;-59
2022/06/14 04:29:46;;;;;;;;;7.67;5.67;;;;;19.86;43.21;98883.28;4990188;27;102227;-59
2022/06/14 04:32:16;;;;;;;;;6.67;6.67;;;;;19.86;43.15;98884.09;4992277;27;108705;-59
2022/06/14 04:34:57;;;;;;;;;6.33;6.33;;;;;19.87;42.83;98879.44;4992388;27;102225;-59
2022/06/14 04:37:31;;;;;;;;;5.00;4.00;;;;;19.87;43.46;98882.19;4990164;28;102616;-59
2022/06/14 04:40:16;;;;;;;;;4.67;4.67;;;;;19.86;43.10;98886.00;4973075;28;102273;-59
2022/06/14 04:42:52;;;;;;;;;5.00;4.67;;;;;19.86;43.04;98881.34;4989502;28;108907;-59
2022/06/14 04:45:32;;;;;;;;;7.33;6.33;;;;;19.84;43.34;98869.81;4972504;27;102192;-59
2022/06/14 04:48:06;;;;;;;;;5.00;4.33;;;;;19.86;43.43;98877.78;4978305;28;102126;-59
2022/06/14 04:50:38;;;;;;;;;4.33;4.33;;;;;19.85;43.20;98881.63;4992065;28;102834;-59
2022/06/14 04:53:10;;;;;;;;;4.00;4.00;;;;;19.83;43.59;98878.31;4973936;28;109064;-59
2022/06/14 04:55:53;;;;;;;;;5.00;4.67;;;;;19.83;43.41;98873.66;4991659;27;102298;-59
2022/06/14 04:58:38;;;;;;;;;4.00;3.67;;;;;19.84;43.17;98877.22;4995439;27;102317;-59
2022/06/14 05:01:10;;;;;;;;;4.33;4.33;;;;;19.83;43.45;98879.13;4990333;28;102994;-59
2022/06/14 05:03:42;;;;;;;;;5.67;4.67;;;;;19.82;43.62;98884.88;4993478;28;108378;-59
2022/06/14 05:06:12;;;;;;;;;3.67;3.67;;;;;19.84;43.47;98885.47;4988795;27;102404;-59
2022/06/14 05:08:45;;;;;;;;;4.00;4.00;;;;;19.81;43.78;98881.28;4977625;28;102589;-59
2022/06/14 05:11:14;;;;;;;;;5.00;5.00;;;;;19.82;43.77;98887.59;4982080;28;102206;-59
2022/06/14 05:13:46;;;;;;;;;5.33;4.33;;;;;19.81;43.58;98880.47;4994259;28;109729;-59
2022/06/14 05:16:26;;;;;;;;;4.33;3.67;;;;;19.78;43.71;98887.28;4986078;28;102239;-59
2022/06/14 05:19:09;;;;;;;;;5.00;5.00;;;;;19.80;43.52;98887.06;4970271;27;102257;-59
2022/06/14 05:22:00;;;;;;;;;2.67;2.67;;;;;19.79;43.91;98882.63;4977691;28;102168;-59
2022/06/14 05:24:27;;;;;;;;;3.00;3.00;;;;;19.80;43.80;98884.31;4996124;27;108931;-59
2022/06/14 05:27:32;;;;;;;;;4.67;4.67;;;;;19.81;43.96;98886.78;4972899;28;102104;-59
2022/06/14 05:30:31;;;;;;;;;5.33;3.67;;;;;19.78;44.22;98889.19;4993779;27;102215;-59
2022/06/14 05:33:01;;;;;;;;;5.00;5.00;;;;;19.78;44.09;98890.03;4982976;28;102286;-59
2022/06/14 05:35:32;;;;;;;;;5.00;5.00;;;;;19.79;44.07;98888.13;4985613;28;104179;-59
2022/06/14 05:38:19;;;;;;;;;5.33;4.67;;;;;19.77;44.15;98884.81;4992210;27;102400;-59
2022/06/14 05:41:03;;;;;;;;;5.67;4.67;;;;;19.76;44.37;98891.38;4998882;27;102432;-59
2022/06/14 05:43:32;;;;;;;;;3.67;3.67;;;;;19.77;44.42;98884.81;4979556;27;102582;-59
2022/06/14 05:46:06;;;;;;;;;5.00;4.00;;;;;19.78;44.73;98891.94;4990354;28;104022;-59
2022/06/14 05:48:45;;;;;;;;;3.67;3.67;;;;;19.81;44.25;98894.22;4977654;28;102337;-59
2022/06/14 05:51:14;;;;;;;;;3.67;3.67;;;;;19.80;44.47;98900.78;4981477;28;102248;-59
2022/06/14 05:53:42;;;;;;;;;3.33;3.33;;;;;19.82;44.18;98901.34;4968042;28;103400;-59
2022/06/14 05:56:23;;;;;;;;;3.67;3.00;;;;;19.80;44.64;98895.28;4983284;28;104264;-59
2022/06/14 05:58:54;;;;;;;;;3.67;3.67;;;;;19.81;44.63;98896.94;4980332;28;102335;-60
2022/06/14 06:01:30;;;;;;;;;5.33;4.33;;;;;19.79;44.64;98899.94;4970557;28;102399;-59
2022/06/14 06:04:17;;;;;;;;;3.33;3.33;;;;;19.79;44.90;98899.09;4988772;27;102024;-59
2022/06/14 06:06:45;;;;;;;;;3.00;2.00;;;;;19.81;45.15;98896.94;4966925;27;108690;-59
2022/06/14 06:09:25;;;;;;;;;3.33;3.33;;;;;19.80;45.03;98900.78;4979278;28;102940;-59
2022/06/14 06:11:58;;;;;;;;;3.67;3.67;;;;;19.79;45.14;98904.59;4993266;27;102264;-59
2022/06/14 06:14:30;;;;;;;;;4.00;4.00;;;;;19.79;45.29;98902.69;4994514;27;102356;-59
2022/06/14 06:17:03;;;;;;;;;3.00;3.00;;;;;19.79;45.17;98899.09;4996955;28;104491;-59
2022/06/14 06:19:58;;;;;;;;;3.00;2.67;;;;;19.81;45.47;98902.44;4991185;27;102502;-59
2022/06/14 06:22:31;;;;;;;;;3.00;2.00;;;;;19.81;45.58;98903.25;4993768;27;102333;-59
2022/06/14 06:25:03;;;;;;;;;3.67;3.67;;;;;19.80;45.59;98901.59;4985835;28;111371;-59
2022/06/14 06:27:44;;;;;;;;;2.33;2.00;;;;;19.78;45.96;98901.00;4969902;28;103696;-59
2022/06/14 06:30:36;;;;;;;;;3.67;3.00;;;;;19.83;45.86;98903.00;4974627;27;102611;-59
2022/06/14 06:33:06;;;;;;;;;3.67;3.33;;;;;19.81;45.77;98908.72;4969525;28;102391;-59
2022/06/14 06:35:38;;;;;;;;;2.67;2.67;;;;;19.81;45.72;98907.94;4982990;27;102479;-59
2022/06/14 06:38:32;;;;;;;;;2.00;2.00;;;;;19.81;46.21;98908.72;4996444;28;108841;-59
2022/06/14 06:43:52;;;;;;;;;2.67;1.67;;;;;19.82;45.95;98904.91;4998248;27;103045;-58
2022/06/14 06:46:19;;;;;;;;;1.67;1.67;;;;;19.82;46.24;98913.13;4993223;27;104527;-59
2022/06/14 06:48:51;;;;;;;;;2.67;2.67;;;;;19.83;46.31;98906.56;4991974;28;104156;-59
2022/06/14 06:51:19;;;;;;;;;2.67;2.33;;;;;19.85;46.28;98909.06;5000898;27;102467;-59
2022/06/14 06:53:58;;;;;;;;;3.00;2.00;;;;;19.87;46.08;98915.13;4993068;28;102427;-59
2022/06/14 06:56:29;;;;;;;;;2.67;1.67;;;;;19.87;46.02;98920.63;4976967;27;102357;-59
2022/06/14 06:59:17;;;;;;;;;2.67;2.67;;;;;19.89;46.32;98916.56;4980962;28;104027;-59
2022/06/14 07:01:44;;;;;;;;;3.00;3.00;;;;;19.91;46.51;98917.13;4992400;28;102280;-59
2022/06/14 07:07:17;;;;;;;;;2.00;2.00;;;;;19.93;46.67;98923.19;4994987;28;102714;-59
2022/06/14 07:09:51;;;;;;;;;1.67;1.67;;;;;19.94;46.41;98924.03;4992283;28;108887;-59
2022/06/14 07:12:21;;;;;;;;;1.33;0.67;;;;;19.94;46.68;98926.78;4956572;28;102025;-59
2022/06/14 07:15:17;;;;;;;;;2.67;2.00;;;;;19.95;46.17;98922.91;4989993;27;102298;-59
2022/06/14 07:17:46;;;;;;;;;2.00;1.67;;;;;19.96;46.44;98925.41;4980351;28;102536;-59
2022/06/14 07:20:30;;;;;;;;;1.67;1.67;;;;;19.97;46.58;98918.03;4993765;28;104198;-59
2022/06/14 07:23:28;;;;;;;;;1.67;1.67;;;;;19.94;46.36;98924.84;4991284;27;102284;-59
2022/06/14 07:26:04;;;;;;;;;1.00;1.00;;;;;19.95;46.65;98921.00;4992745;27;103888;-59
2022/06/14 07:28:40;;;;;;;;;1.67;1.67;;;;;19.98;46.35;98931.50;4994834;27;102820;-59
2022/06/14 07:31:16;;;;;;;;;1.33;1.33;;;;;20.01;46.51;98921.91;4985711;28;109131;-59
2022/06/14 07:33:43;;;;;;;;;2.00;1.67;;;;;20.03;46.76;98922.50;4990245;28;102255;-59
2022/06/14 07:36:24;;;;;;;;;0.67;0.67;;;;;20.05;46.30;98925.81;4979771;28;102454;-59
2022/06/14 07:39:02;;;;;;;;;1.67;1.67;;;;;20.04;46.71;98924.97;4967968;27;104492;-59
2022/06/14 07:41:38;;;;;;;;;1.67;1.67;;;;;20.06;46.56;98932.97;4983782;27;104276;-59
2022/06/14 07:44:39;;;;;;;;;1.67;1.67;;;;;20.07;46.65;98933.81;4986181;28;102252;-59
2022/06/14 07:47:06;;;;;;;;;1.00;1.00;;;;;20.07;46.95;98934.63;4991910;28;102698;-59
2022/06/14 07:49:51;;;;;;;;;0.67;0.67;;;;;20.07;47.09;98929.13;4998618;27;105173;-59
2022/06/14 07:52:34;;;;;;;;;2.00;1.00;;;;;20.09;46.75;98932.44;4979176;27;104322;-59
2022/06/14 07:55:16;;;;;;;;;1.67;1.33;;;;;20.08;46.54;98930.81;4981399;28;102502;-59
2022/06/14 07:57:45;;;;;;;;;0.67;0.67;;;;;20.13;46.98;98933.59;4978095;27;102097;-59
2022/06/14 08:03:37;;;;;;;;;1.00;1.00;;;;;20.16;47.10;98940.50;4993155;28;109768;-59
2022/06/14 08:06:08;;;;;;;;;1.00;1.00;;;;;20.16;46.78;98943.25;4988403;28;102217;-59
2022/06/14 08:08:36;;;;;;;;;0.67;0.67;;;;;20.15;47.11;98939.69;4995242;27;102374;-59
2022/06/14 08:11:18;;;;;;;;;0.67;0.67;;;;;20.15;46.79;98936.94;4998908;27;102574;-59
2022/06/14 08:14:02;;;;;;;;;1.67;1.67;;;;;20.19;46.53;98942.75;4981656;27;109014;-59
2022/06/14 08:16:29;;;;;;;;;2.00;1.33;;;;;20.20;47.23;98939.75;4987295;27;102359;-59
2022/06/14 08:19:08;;;;;;;;;0.67;0.67;;;;;20.20;47.10;98939.75;4994551;27;111284;-59
2022/06/14 08:21:53;;;;;;;;;0.67;0.67;;;;;20.23;46.95;98935.66;4954906;27;102177;-59
2022/06/14 08:24:22;;;;;;;;;1.33;1.33;;;;;20.23;47.01;98933.72;4950321;28;109754;-59
2022/06/14 08:26:56;;;;;;;;;0.67;0.67;;;;;20.25;47.23;98933.50;4958653;27;102203;-59
2022/06/14 08:29:27;;;;;;;;;1.33;1.33;;;;;20.24;47.13;98940.06;4965392;28;102435;-59
2022/06/14 08:32:16;;;;;;;;;0.67;0.67;;;;;20.25;46.67;98931.56;4985399;28;102499;-59
2022/06/14 08:34:48;;;;;;;;;1.67;1.67;;;;;20.25;47.08;98934.31;4978895;27;109126;-59
2022/06/14 08:37:22;;;;;;;;;0.67;0.67;;;;;20.26;46.69;98924.97;4985313;28;102333;-59
2022/06/14 08:39:56;;;;;;;;;0.67;0.67;;;;;20.25;46.55;98926.09;4977944;27;102604;-59
2022/06/14 08:42:36;;;;;;;;;1.67;1.67;;;;;20.27;46.56;98925.81;4967533;27;102468;-59
2022/06/14 08:45:54;;;;;;;;;2.00;2.00;;;;;20.28;46.51;98931.06;4984430;28;104093;-59
2022/06/14 08:48:43;;;;;;;;;1.67;0.67;;;;;20.29;46.54;98923.66;4953030;27;102434;-59
2022/06/14 08:51:23;;;;;;;;;1.00;1.00;;;;;20.30;46.80;98926.19;4987956;28;102545;-59
2022/06/14 08:54:15;;;;;;;;;1.00;1.00;;;;;20.32;46.41;98925.91;4992062;27;102270;-59
2022/06/14 08:56:59;;;;;;;;;1.00;1.00;;;;;20.31;46.45;98919.59;4990161;27;108718;-59
2022/06/14 08:59:54;;;;;;;;;1.00;1.00;;;;;20.33;46.51;98920.16;4991054;27;102582;-59
2022/06/14 09:02:45;;;;;;;;;1.00;1.00;;;;;20.35;46.85;98915.22;4972016;28;102279;-59
2022/06/14 09:05:50;;;;;;;;;1.67;1.67;;;;;20.33;46.79;98914.69;4993472;28;102224;-59
2022/06/14 09:08:52;;;;;;;;;0.67;0.67;;;;;20.36;46.55;98907.81;4986276;27;109147;-59
2022/06/14 09:11:43;;;;;;;;;0.67;0.67;;;;;20.38;46.79;98913.91;4985081;27;102438;-59
2022/06/14 09:14:36;;;;;;;;;1.67;1.67;;;;;20.40;46.79;98915.28;4995557;27;102628;-59
2022/06/14 09:17:28;;;;;;;;;0.67;0.67;;;;;20.41;46.79;98913.38;4984931;28;102496;-59
2022/06/14 09:20:31;;;;;;;;;1.00;1.00;;;;;20.42;46.83;98924.13;4997157;27;108849;-59
2022/06/14 09:23:21;;;;;;;;;1.33;1.33;;;;;20.42;46.37;98921.38;4987383;27;102121;-59
2022/06/14 09:26:00;;;;;;;;;1.00;1.00;;;;;20.44;46.33;98921.13;4994494;28;102544;-59
2022/06/14 09:29:01;;;;;;;;;1.33;0.67;;;;;20.44;46.39;98913.69;4985792;28;102517;-59
2022/06/14 09:31:45;;;;;;;;;0.33;0.33;;;;;20.44;46.41;98907.41;4975259;28;109287;-59
2022/06/14 09:34:38;;;;;;;;;1.00;1.00;;;;;20.44;46.77;98905.44;4994251;27;102970;-59
2022/06/14 09:37:35;;;;;;;;;1.00;1.00;;;;;20.45;46.47;98896.13;4993340;27;102493;-59
2022/06/14 09:40:40;;;;;;;;;0.67;0.67;;;;;20.45;46.72;98900.78;4983365;28;102502;-59
2022/06/14 09:43:30;;;;;;;;;0.67;0.67;;;;;20.46;46.59;98906.03;4993506;27;108865;-59
2022/06/14 09:46:10;;;;;;;;;0.33;0.33;;;;;20.47;46.22;98904.97;4993273;27;102327;-59
2022/06/14 09:49:05;;;;;;;;;0.67;0.67;;;;;20.47;46.64;98893.97;4985733;27;102578;-59
2022/06/14 09:51:59;;;;;;;;;0.33;0.33;;;;;20.48;46.31;98892.88;4986932;28;102427;-59
2022/06/14 09:54:32;;;;;;;;;0.00;0.00;;;;;20.48;46.32;98892.88;4999206;27;108835;-59
2022/06/14 09:57:08;;;;;;;;;0.67;0.67;;;;;20.51;46.50;98896.19;4983710;27;102378;-59
2022/06/14 09:59:48;;;;;;;;;1.00;1.00;;;;;20.51;46.52;98888.78;4998393;27;102015;-59
2022/06/14 10:02:15;;;;;;;;;0.67;0.67;;;;;20.52;46.72;98897.84;4988035;27;102263;-59
2022/06/14 10:05:24;;;;;;;;;1.33;1.00;;;;;20.53;46.46;98896.78;4996167;27;103021;-59
2022/06/14 10:08:04;;;;;;;;;1.33;1.33;;;;;20.53;46.53;98888.53;4992595;28;102370;-59
2022/06/14 10:10:38;;;;;;;;;0.67;0.67;;;;;20.54;46.38;98892.91;4988376;28;102262;-59
2022/06/14 10:13:05;;;;;;;;;1.67;0.67;;;;;20.54;46.29;98893.75;5000659;28;102456;-59
2022/06/14 10:15:45;;;;;;;;;0.67;0.67;;;;;20.55;46.41;98900.06;4999453;27;104176;-59
2022/06/14 10:18:29;;;;;;;;;0.00;0.00;;;;;20.55;46.88;98897.34;4997418;27;102444;-59
2022/06/14 10:21:34;;;;;;;;;1.00;1.00;;;;;20.56;46.66;98901.75;4959017;28;102806;-59
2022/06/14 10:24:12;;;;;;;;;0.67;0.67;;;;;20.57;46.23;98895.16;4985058;27;102531;-59
2022/06/14 10:30:03;;;;;;;;;0.33;0.33;;;;;20.59;46.23;98887.47;4992875;27;102181;-59
2022/06/14 10:32:32;;;;;;;;;0.67;0.67;;;;;20.61;46.19;98890.81;4984853;27;105259;-59
2022/06/14 10:35:04;;;;;;;;;0.67;0.67;;;;;20.61;46.64;98890.81;4998203;27;102224;-59
2022/06/14 10:38:05;;;;;;;;;0.67;0.67;;;;;20.61;46.17;98879.81;4991331;27;104300;-59
2022/06/14 10:40:53;;;;;;;;;1.33;0.67;;;;;20.62;46.60;98886.97;4987892;27;102023;-59
2022/06/14 10:43:31;;;;;;;;;0.00;0.00;;;;;20.62;46.62;98893.31;4996165;28;101853;-59
2022/06/14 10:46:21;;;;;;;;;0.67;0.67;;;;;20.63;46.45;98874.88;4990516;27;102465;-59
2022/06/14 10:49:01;;;;;;;;;0.67;0.67;;;;;20.64;46.11;98871.06;4989789;28;109343;-59
2022/06/14 10:51:50;;;;;;;;;0.67;0.67;;;;;20.64;46.48;98873.81;4970059;28;102222;-59
2022/06/14 10:54:26;;;;;;;;;0.67;0.67;;;;;20.64;46.35;98874.63;4993239;28;102645;-59
2022/06/14 10:56:59;;;;;;;;;0.67;0.67;;;;;20.66;46.54;98877.13;4990931;27;102844;-59
2022/06/14 10:59:38;;;;;;;;;0.67;0.67;;;;;20.66;46.54;98864.22;4982435;28;104057;-59
2022/06/14 11:02:27;;;;;;;;;1.00;1.00;;;;;20.69;46.01;98871.09;4991005;27;102030;-59
2022/06/14 11:05:04;;;;;;;;;0.67;0.67;;;;;20.70;46.38;98861.78;4996130;28;102215;-59
2022/06/14 11:07:38;;;;;;;;;0.00;0.00;;;;;20.71;45.89;98874.44;4993093;27;102196;-59
2022/06/14 11:10:23;;;;;;;;;0.67;0.67;;;;;20.73;46.49;98872.25;4991853;27;104060;-59
2022/06/14 11:12:56;;;;;;;;;1.67;0.67;;;;;20.74;45.85;98868.41;4984406;28;102490;-59
2022/06/14 11:15:45;;;;;;;;;1.00;1.00;;;;;20.75;46.15;98859.09;4998953;28;103592;-59
2022/06/14 11:18:34;;;;;;;;;1.00;1.00;;;;;20.75;46.18;98867.31;4997500;28;102711;-59
2022/06/14 11:21:30;;;;;;;;;1.00;1.00;;;;;20.77;45.88;98862.38;4998108;27;108947;-59
2022/06/14 11:24:19;;;;;;;;;0.67;0.67;;;;;20.78;46.29;98866.78;4972295;27;104393;-59
2022/06/14 11:26:57;;;;;;;;;0.00;0.00;;;;;20.79;45.87;98869.28;4998054;27;102260;-59
2022/06/14 11:29:49;;;;;;;;;0.00;0.00;;;;;20.80;45.75;98864.63;4981332;27;102378;-59
2022/06/14 11:32:29;;;;;;;;;0.67;0.67;;;;;20.81;45.99;98867.09;4983712;28;108689;-59
2022/06/14 11:35:02;;;;;;;;;1.00;0.67;;;;;20.83;46.17;98869.59;4982169;28;102168;-59
2022/06/14 11:38:05;;;;;;;;;0.33;0.33;;;;;20.84;46.11;98861.09;4980993;28;102302;-59
2022/06/14 11:40:33;;;;;;;;;0.67;0.67;;;;;20.86;46.04;98867.16;4987681;28;102237;-59
2022/06/14 11:43:24;;;;;;;;;0.67;0.67;;;;;20.87;45.86;98867.97;4994549;28;104489;-59
2022/06/14 11:46:23;;;;;;;;;0.67;0.67;;;;;20.90;46.00;98856.47;4979953;28;102518;-59
2022/06/14 11:49:04;;;;;;;;;0.67;0.67;;;;;20.90;45.56;98859.19;4991082;28;102073;-59
2022/06/14 11:51:43;;;;;;;;;0.67;0.67;;;;;20.91;45.64;98858.13;4987757;27;102622;-59
2022/06/14 11:54:19;;;;;;;;;0.33;0.33;;;;;20.92;45.74;98866.13;4994688;27;104181;-59
2022/06/14 11:57:02;;;;;;;;;0.33;0.33;;;;;20.92;45.71;98870.78;4981726;28;102295;-59
2022/06/14 12:00:10;;;;;;;;;0.67;0.67;;;;;20.93;45.73;98862.28;4995112;27;102339;-59
2022/06/14 12:03:09;;;;;;;;;0.67;0.33;;;;;20.94;45.89;98863.91;5000805;27;102312;-59
2022/06/14 12:05:54;;;;;;;;;1.00;1.00;;;;;20.96;45.82;98860.91;4984671;28;104366;-59
2022/06/14 12:08:21;;;;;;;;;1.00;0.67;;;;;20.97;45.99;98859.84;4992508;28;102274;-59
2022/06/14 12:11:06;;;;;;;;;1.00;1.00;;;;;20.97;45.76;98862.59;4994199;28;102286;-59
2022/06/14 12:13:48;;;;;;;;;0.33;0.33;;;;;20.99;45.92;98860.38;4990593;27;102605;-59
2022/06/14 12:16:19;;;;;;;;;0.67;0.67;;;;;21.01;45.68;98852.72;4991486;27;108874;-59
2022/06/14 12:19:08;;;;;;;;;0.00;0.00;;;;;21.02;45.85;98859.03;4993153;28;102184;-59
2022/06/14 12:21:48;;;;;;;;;0.00;0.00;;;;;21.03;45.52;98856.00;4990627;27;102334;-59
2022/06/14 12:24:20;;;;;;;;;0.00;0.00;;;;;21.03;46.03;98856.00;4980862;28;102309;-59
2022/06/14 12:26:59;;;;;;;;;0.67;0.67;;;;;21.04;45.85;98862.34;4993048;28;109018;-59
2022/06/14 12:29:29;;;;;;;;;1.00;1.00;;;;;21.04;45.32;98851.34;4961543;28;102444;-59
2022/06/14 12:32:05;;;;;;;;;0.67;0.67;;;;;21.05;45.97;98853.84;4967042;28;103093;-59
2022/06/14 12:34:38;;;;;;;;;0.67;0.67;;;;;21.05;45.71;98856.59;4990533;28;102637;-59
2022/06/14 12:37:31;;;;;;;;;0.00;0.00;;;;;21.08;45.57;98853.31;4996234;27;104115;-59
2022/06/14 12:40:25;;;;;;;;;0.00;0.00;;;;;21.09;45.59;98849.47;4995345;28;101981;-59